Loma, North Dakota
Current Conditions -  °F | °C
As of 3:55 AM on Friday 19 Dec 2014 (Local Time) from KD55 Reporting Station
Haze Haze  
Wind Chill: 12°   Ceiling: 200
Heat Index: 23°   Visibility: 2.5mi
Dew Point: 21°   Wind: 12mph
Humidity: 93%   Direction: 170°S
Pressure: 30"   Gusts: NA
Location:  48.6307°N, 98.5917°W
Report Text: KD55 190955Z AUTO 17010KT 2 1/2SM BR OVC002 M05/M06 A3000 RMK AO2
Loading
Personal Weather Stations






























Interactive Weather Map New forecast layout! Learn more

10-Day Weather Forecast

Advertisements
Track Severe Weather on mobile